Time;durP1;ratioP1;P1;durP2;ratioP2;P2;SDS_P1;SDS_P2;PMS_P1;PMS_P2;Temp;Humidity;BMP_temperature;BMP_pressure;BME280_temperature;BME280_humidity;BME280_pressure;Samples;Min_cycle;Max_cycle;Signal;HPM_P1;HPM_P2
2023/07/13 00:01:17;;;;;;;0.00;0.00;;;;;;;21.40;65.02;101358.97;5030922;28;20049;-65
2023/07/13 00:03:43;;;;;;;0.00;0.00;;;;;;;21.45;64.42;101364.41;5031262;28;20047;-65
2023/07/13 00:06:08;;;;;;;0.00;0.00;;;;;;;21.47;64.49;101355.91;5031186;28;20037;-67
2023/07/13 00:08:34;;;;;;;0.00;0.00;;;;;;;21.51;64.74;101362.44;5031772;28;20057;-65
2023/07/13 00:11:01;;;;;;;0.00;0.00;;;;;;;21.76;63.18;101365.78;5031262;28;20040;-64
2023/07/13 00:13:26;;;;;;;0.00;0.00;;;;;;;21.42;64.58;101358.69;5031298;28;20033;-65
2023/07/13 00:15:53;;;;;;;0.05;0.05;;;;;;;21.27;65.43;101358.78;5030818;28;20044;-66
2023/07/13 00:18:19;;;;;;;0.00;0.00;;;;;;;21.37;65.39;101356.78;5031153;28;20029;-65
2023/07/13 00:20:45;;;;;;;0.10;0.10;;;;;;;21.25;67.03;101359.06;5031094;28;20035;-65
2023/07/13 00:23:10;;;;;;;0.00;0.00;;;;;;;21.31;66.39;101354.38;5030725;28;20044;-66
2023/07/13 00:25:35;;;;;;;0.00;0.00;;;;;;;20.69;70.12;101355.78;5030586;28;20116;-65
2023/07/13 00:28:01;;;;;;;0.00;0.00;;;;;;;21.02;68.51;101361.66;5030679;28;20037;-64
2023/07/13 00:30:26;;;;;;;0.00;0.00;;;;;;;20.59;70.54;101372.22;5030898;28;20029;-65
2023/07/13 00:32:52;;;;;;;0.00;0.00;;;;;;;20.87;68.80;101374.25;5030923;28;20041;-66
2023/07/13 00:35:17;;;;;;;0.00;0.00;;;;;;;20.83;69.46;101369.66;5031311;28;20108;-65
2023/07/13 00:37:43;;;;;;;0.03;0.03;;;;;;;20.28;72.25;101372.56;5030431;28;20048;-66
2023/07/13 00:40:11;;;;;;;0.00;0.00;;;;;;;20.40;71.62;101364.91;5030676;28;20056;-63
2023/07/13 00:42:36;;;;;;;0.00;0.00;;;;;;;20.58;70.94;101376.03;5030566;28;20026;-67
2023/07/13 00:45:11;;;;;;;0.10;0.10;;;;;;;20.02;73.84;101369.03;5027988;28;20041;-66
2023/07/13 00:47:36;;;;;;;0.10;0.10;;;;;;;20.26;72.86;101372.84;5030800;28;20026;-66
2023/07/13 00:50:03;;;;;;;0.10;0.10;;;;;;;20.19;72.83;101369.56;5043262;28;20561;-65
2023/07/13 00:52:29;;;;;;;0.05;0.05;;;;;;;20.22;72.73;101370.94;5050010;28;20061;-65
2023/07/13 00:54:55;;;;;;;0.10;0.10;;;;;;;20.38;72.61;101373.38;5050181;28;20032;-64
2023/07/13 00:57:21;;;;;;;0.10;0.10;;;;;;;20.32;73.55;101368.19;5050198;28;20037;-66
2023/07/13 00:59:53;;;;;;;0.10;0.10;;;;;;;20.21;74.19;101361.94;5050869;28;20021;-64
2023/07/13 01:02:19;;;;;;;0.20;0.20;;;;;;;20.04;74.41;101369.56;5050214;28;20128;-65
2023/07/13 01:04:45;;;;;;;0.10;0.10;;;;;;;20.34;73.71;101376.94;5016855;28;20130;-65
2023/07/13 01:07:12;;;;;;;0.10;0.10;;;;;;;20.02;74.70;101377.22;5029439;28;20370;-65
2023/07/13 01:09:37;;;;;;;0.10;0.10;;;;;;;20.02;75.09;101375.31;5030568;28;20052;-65
2023/07/13 01:12:03;;;;;;;0.10;0.10;;;;;;;20.28;73.52;101384.31;5030066;28;20038;-65
2023/07/13 01:14:29;;;;;;;0.10;0.10;;;;;;;20.41;73.34;101386.47;5030680;28;20057;-66
2023/07/13 01:16:54;;;;;;;0.10;0.10;;;;;;;19.93;76.26;101385.13;5029765;28;20029;-65
2023/07/13 01:19:35;;;;;;;0.10;0.10;;;;;;;20.54;73.07;101388.59;5022615;28;20513;-66
2023/07/13 01:22:02;;;;;;;0.10;0.10;;;;;;;20.39;73.67;101390.56;5031921;28;20048;-65
2023/07/13 01:24:28;;;;;;;0.10;0.10;;;;;;;20.38;74.15;101384.28;5048149;28;20075;-66
2023/07/13 01:26:54;;;;;;;0.10;0.10;;;;;;;20.92;71.34;101379.72;5049046;28;20052;-66
2023/07/13 01:29:20;;;;;;;0.10;0.10;;;;;;;21.03;70.72;101379.72;5036580;28;20489;-66
2023/07/13 01:31:46;;;;;;;0.10;0.10;;;;;;;21.08;70.21;101379.66;5029612;28;20037;-65
2023/07/13 01:34:11;;;;;;;0.10;0.10;;;;;;;21.35;70.10;101380.03;5029422;28;20044;-65
2023/07/13 01:36:36;;;;;;;0.03;0.03;;;;;;;20.77;71.01;101377.06;5029589;28;20030;-64
2023/07/13 01:39:03;;;;;;;0.10;0.10;;;;;;;20.82;72.09;101376.22;5029633;28;20033;-65
2023/07/13 01:41:28;;;;;;;0.10;0.10;;;;;;;20.95;70.63;101384.63;5030304;28;20040;-64
2023/07/13 01:43:53;;;;;;;0.10;0.10;;;;;;;20.98;71.17;101380.50;5029126;28;20605;-65
2023/07/13 01:46:19;;;;;;;0.10;0.10;;;;;;;20.75;72.25;101381.16;5029101;28;20060;-65
2023/07/13 01:48:44;;;;;;;0.10;0.10;;;;;;;21.14;69.17;101375.81;5029236;28;20037;-65
2023/07/13 01:51:09;;;;;;;0.10;0.10;;;;;;;21.09;70.34;101371.19;5044990;28;20527;-65
2023/07/13 01:53:35;;;;;;;0.10;0.10;;;;;;;21.37;68.70;101378.66;5047745;28;20037;-65
2023/07/13 01:56:00;;;;;;;0.10;0.10;;;;;;;20.81;71.16;101382.78;5049232;28;20033;-65
2023/07/13 01:58:25;;;;;;;0.10;0.10;;;;;;;20.45;72.79;101379.34;5049314;28;20037;-65
2023/07/13 02:00:51;;;;;;;0.10;0.10;;;;;;;20.69;71.86;101376.81;5049347;28;20045;-65
2023/07/13 02:03:18;;;;;;;0.10;0.10;;;;;;;21.02;70.44;101387.06;5046896;28;20033;-67
2023/07/13 02:05:44;;;;;;;0.10;0.10;;;;;;;20.81;71.48;101388.25;5030326;28;20113;-65
2023/07/13 02:08:10;;;;;;;0.17;0.17;;;;;;;21.29;68.82;101389.38;5029423;28;20041;-64
2023/07/13 02:10:37;;;;;;;0.10;0.10;;;;;;;21.67;67.57;101389.41;5029363;28;20038;-65
2023/07/13 02:13:05;;;;;;;0.10;0.10;;;;;;;20.94;70.23;101390.38;5011393;28;20056;-66
2023/07/13 02:15:30;;;;;;;0.10;0.10;;;;;;;20.53;71.59;101388.88;5029271;28;20064;-67
2023/07/13 02:17:56;;;;;;;0.10;0.10;;;;;;;20.53;72.37;101388.88;5028847;28;20473;-65
2023/07/13 02:20:22;;;;;;;0.10;0.10;;;;;;;20.62;72.05;101382.56;5029750;28;20021;-64
2023/07/13 02:22:47;;;;;;;0.20;0.20;;;;;;;20.77;71.33;101377.06;5011567;28;20656;-64
2023/07/13 02:25:14;;;;;;;0.10;0.10;;;;;;;20.44;71.83;101380.44;5029240;28;20041;-64
2023/07/13 02:27:39;;;;;;;0.10;0.10;;;;;;;20.11;74.09;101386.47;5029125;28;20142;-65
2023/07/13 02:30:05;;;;;;;0.10;0.10;;;;;;;20.15;73.86;101379.38;5029374;28;20539;-65
2023/07/13 02:32:31;;;;;;;0.03;0.03;;;;;;;20.37;72.99;101388.09;5029223;28;20018;-64
2023/07/13 02:34:56;;;;;;;0.10;0.10;;;;;;;20.47;72.23;101385.34;5028864;28;20034;-64
2023/07/13 02:37:21;;;;;;;0.10;0.10;;;;;;;20.32;72.53;101376.38;5029127;28;20543;-65
2023/07/13 02:39:47;;;;;;;0.10;0.10;;;;;;;19.72;75.58;101377.22;5029154;28;20033;-65
2023/07/13 02:42:13;;;;;;;0.10;0.10;;;;;;;20.41;73.34;101393.81;5029141;28;20167;-63
2023/07/13 02:44:38;;;;;;;0.10;0.10;;;;;;;20.05;74.25;101380.22;5045438;28;20120;-65
2023/07/13 02:47:04;;;;;;;0.10;0.10;;;;;;;20.00;75.57;101384.88;5030501;28;20045;-65
2023/07/13 02:49:29;;;;;;;0.10;0.10;;;;;;;20.14;74.12;101377.75;5048379;28;20464;-65
2023/07/13 02:51:54;;;;;;;0.10;0.10;;;;;;;20.55;72.64;101378.50;5048890;28;20067;-65
2023/07/13 02:54:20;;;;;;;0.00;0.00;;;;;;;20.34;72.49;101382.38;5048586;28;20465;-65
2023/07/13 02:56:45;;;;;;;0.10;0.10;;;;;;;20.24;73.53;101385.97;5049388;28;20024;-65
2023/07/13 02:59:12;;;;;;;0.10;0.10;;;;;;;20.06;73.71;101381.03;5048782;28;20036;-64
2023/07/13 03:01:37;;;;;;;0.10;0.10;;;;;;;19.59;76.40;101399.59;5048407;28;20045;-66
2023/07/13 03:04:03;;;;;;;0.10;0.10;;;;;;;20.28;73.60;101397.13;5022027;28;20045;-67
2023/07/13 03:06:31;;;;;;;0.10;0.10;;;;;;;19.64;76.03;101394.13;5030315;28;20041;-66
2023/07/13 03:08:56;;;;;;;0.10;0.10;;;;;;;19.99;75.26;101394.13;5032282;28;20021;-67
2023/07/13 03:11:21;;;;;;;0.10;0.10;;;;;;;20.05;75.29;101395.75;5032540;28;20544;-66
2023/07/13 03:13:48;;;;;;;0.10;0.10;;;;;;;19.95;74.36;101402.03;5032251;28;20041;-65
2023/07/13 03:16:15;;;;;;;0.10;0.10;;;;;;;19.96;75.09;101398.25;5032233;28;20060;-64
2023/07/13 03:18:41;;;;;;;0.10;0.10;;;;;;;19.94;75.41;101396.88;5031763;28;20030;-66
2023/07/13 03:21:06;;;;;;;0.10;0.10;;;;;;;20.28;73.54;101397.97;5031895;28;20026;-65
2023/07/13 03:23:32;;;;;;;0.20;0.20;;;;;;;20.49;72.79;101407.75;5032856;28;20025;-65
2023/07/13 03:26:06;;;;;;;0.10;0.10;;;;;;;20.03;75.24;101406.13;5031936;28;20563;-65
2023/07/13 03:28:32;;;;;;;0.05;0.05;;;;;;;20.11;75.39;101408.31;5031821;28;20033;-66
2023/07/13 03:31:06;;;;;;;0.10;0.10;;;;;;;19.91;75.51;101414.59;5031596;28;20033;-66
2023/07/13 03:33:31;;;;;;;0.10;0.10;;;;;;;20.33;73.39;101408.88;5030170;28;20045;-65
2023/07/13 03:35:57;;;;;;;0.10;0.10;;;;;;;20.12;74.77;101410.78;5014001;28;20030;-64
2023/07/13 03:38:22;;;;;;;0.10;0.10;;;;;;;19.38;78.93;101420.53;5032314;28;20025;-65
2023/07/13 03:40:48;;;;;;;0.10;0.10;;;;;;;19.97;76.32;101418.97;5031631;28;20033;-65
2023/07/13 03:43:14;;;;;;;0.10;0.10;;;;;;;19.97;76.51;101420.84;5031394;28;20034;-65
2023/07/13 03:45:39;;;;;;;0.10;0.10;;;;;;;19.82;77.18;101421.69;5031558;28;20041;-64
2023/07/13 03:48:05;;;;;;;0.10;0.10;;;;;;;19.49;78.25;101424.94;5031557;28;20076;-66
2023/07/13 03:50:31;;;;;;;0.10;0.10;;;;;;;19.01;80.77;101419.84;5048763;28;20519;-65
2023/07/13 03:52:58;;;;;;;0.10;0.10;;;;;;;19.04;80.88;101430.22;5051321;28;20072;-64
2023/07/13 03:55:23;;;;;;;0.10;0.10;;;;;;;19.45;80.00;101433.91;5051360;28;20561;-64
2023/07/13 03:57:58;;;;;;;0.10;0.10;;;;;;;19.26;80.95;101436.28;5050920;28;20132;-66
2023/07/13 04:00:24;;;;;;;0.10;0.10;;;;;;;19.82;78.24;101438.06;5051032;28;20059;-66
2023/07/13 04:02:50;;;;;;;0.10;0.10;;;;;;;19.96;76.61;101432.88;5031762;28;20037;-64
2023/07/13 04:05:15;;;;;;;0.10;0.10;;;;;;;20.08;75.85;101433.44;5028711;28;20116;-66
2023/07/13 04:07:41;;;;;;;0.10;0.10;;;;;;;19.74;78.09;101424.13;5011019;28;20042;-65
2023/07/13 04:10:07;;;;;;;0.10;0.10;;;;;;;19.95;76.72;101437.50;5024023;28;20045;-65
2023/07/13 04:12:33;;;;;;;0.10;0.10;;;;;;;20.00;76.31;101442.97;5024232;28;20523;-64
2023/07/13 04:14:58;;;;;;;0.10;0.10;;;;;;;19.94;76.37;101443.25;5030811;28;20041;-64
2023/07/13 04:17:23;;;;;;;0.10;0.10;;;;;;;19.56;79.30;101451.91;5030095;28;20036;-64
2023/07/13 04:19:49;;;;;;;0.10;0.10;;;;;;;19.15;81.31;101448.22;5030791;28;20045;-64
2023/07/13 04:22:14;;;;;;;0.10;0.10;;;;;;;19.20;81.55;101462.69;5030936;28;20045;-66
2023/07/13 04:24:40;;;;;;;0.17;0.17;;;;;;;19.41;81.29;101457.34;5030981;28;20060;-67
2023/07/13 04:27:06;;;;;;;0.10;0.10;;;;;;;19.18;83.08;101459.41;5030794;28;20472;-65
2023/07/13 04:29:31;;;;;;;0.10;0.10;;;;;;;19.60;79.74;101451.13;5031305;28;20041;-64
2023/07/13 04:31:57;;;;;;;0.00;0.00;;;;;;;19.13;82.80;101453.94;5031139;28;20064;-65
2023/07/13 04:34:23;;;;;;;0.10;0.10;;;;;;;19.36;81.89;101458.13;5030198;28;20044;-64
2023/07/13 04:36:49;;;;;;;0.13;0.13;;;;;;;19.51;80.64;101451.91;5031965;28;20035;-64
2023/07/13 04:39:15;;;;;;;0.10;0.10;;;;;;;19.13;83.28;101462.13;5031640;28;20025;-65
2023/07/13 04:41:40;;;;;;;0.10;0.10;;;;;;;19.16;82.95;101464.31;5028636;28;20033;-64
2023/07/13 04:44:06;;;;;;;0.08;0.08;;;;;;;19.35;82.81;101456.50;5032316;28;20539;-67
2023/07/13 04:46:31;;;;;;;0.10;0.10;;;;;;;19.17;83.78;101467.84;5030203;28;20044;-66
2023/07/13 04:48:57;;;;;;;0.10;0.10;;;;;;;19.67;81.16;101459.03;5030057;28;20084;-66
2023/07/13 04:51:23;;;;;;;0.10;0.10;;;;;;;19.04;84.37;101462.91;5047755;28;20029;-65
2023/07/13 04:53:48;;;;;;;0.10;0.10;;;;;;;19.20;84.28;101459.97;5050852;28;20037;-66
2023/07/13 04:56:14;;;;;;;0.10;0.10;;;;;;;19.07;83.75;101467.81;5049798;28;20033;-65
2023/07/13 04:58:40;;;;;;;0.10;0.10;;;;;;;19.29;84.42;101466.56;5050523;28;20114;-65
2023/07/13 05:01:06;;;;;;;0.10;0.10;;;;;;;19.48;83.02;101468.81;5049887;28;20547;-65
2023/07/13 05:03:31;;;;;;;0.10;0.10;;;;;;;19.74;81.72;101473.22;5034724;28;20065;-65
2023/07/13 05:06:03;;;;;;;0.10;0.10;;;;;;;19.44;83.46;101473.19;5030728;28;20437;-65
2023/07/13 05:08:29;;;;;;;0.10;0.10;;;;;;;19.40;82.93;101475.59;5030203;28;20125;-66
2023/07/13 05:10:54;;;;;;;0.10;0.10;;;;;;;19.46;82.77;101469.06;5024472;28;20140;-65
2023/07/13 05:13:20;;;;;;;0.10;0.10;;;;;;;19.65;81.82;101485.75;5030346;28;20037;-66
2023/07/13 05:15:47;;;;;;;0.10;0.10;;;;;;;19.56;82.70;101487.34;5020697;28;20049;-64
2023/07/13 05:18:13;;;;;;;0.10;0.10;;;;;;;20.11;80.06;101482.81;5030363;28;20033;-65
2023/07/13 05:20:38;;;;;;;0.10;0.10;;;;;;;19.46;82.79;101488.16;5029801;28;20091;-67
2023/07/13 05:23:03;;;;;;;0.10;0.10;;;;;;;20.05;80.32;101486.63;5029988;28;20037;-65
2023/07/13 05:25:29;;;;;;;0.10;0.10;;;;;;;19.78;81.88;101488.78;5029114;28;20563;-66
2023/07/13 05:27:54;;;;;;;0.10;0.10;;;;;;;20.11;80.42;101487.44;5029407;28;20044;-66
2023/07/13 05:30:20;;;;;;;0.20;0.20;;;;;;;19.92;81.24;101492.63;5029035;28;20048;-66
2023/07/13 05:32:45;;;;;;;0.10;0.10;;;;;;;19.75;82.16;101491.25;5030548;28;20033;-65
2023/07/13 05:35:11;;;;;;;0.10;0.10;;;;;;;19.87;82.23;101495.34;5028916;28;20033;-66
2023/07/13 05:37:37;;;;;;;0.10;0.10;;;;;;;20.34;80.85;101497.88;5029375;28;20036;-66
2023/07/13 05:40:03;;;;;;;0.00;0.00;;;;;;;20.33;79.91;101490.75;5028538;28;20552;-65
2023/07/13 05:42:28;;;;;;;0.10;0.10;;;;;;;20.57;78.89;101501.94;5033691;28;20100;-65
2023/07/13 05:44:53;;;;;;;0.03;0.03;;;;;;;20.02;82.13;101506.28;5029540;28;20041;-66
2023/07/13 05:47:20;;;;;;;0.10;0.10;;;;;;;20.03;82.22;101509.81;5029006;28;20072;-65
2023/07/13 05:49:45;;;;;;;0.10;0.10;;;;;;;20.19;81.68;101508.78;5032162;28;20057;-66
2023/07/13 05:52:11;;;;;;;0.00;0.00;;;;;;;20.41;81.64;101511.22;5028743;28;20057;-66
2023/07/13 05:54:36;;;;;;;0.00;0.00;;;;;;;21.18;77.33;101514.38;5025760;28;20037;-65
2023/07/13 05:57:01;;;;;;;0.10;0.10;;;;;;;20.88;78.56;101514.44;5028986;28;20021;-64
2023/07/13 05:59:27;;;;;;;0.03;0.03;;;;;;;20.92;78.83;101521.81;5023240;28;20486;-65
2023/07/13 06:01:52;;;;;;;0.10;0.10;;;;;;;21.04;78.18;101509.78;5026935;28;20045;-64
2023/07/13 06:04:19;;;;;;;0.10;0.10;;;;;;;21.11;78.00;101521.25;5027188;28;20068;-64
2023/07/13 06:06:45;;;;;;;0.08;0.08;;;;;;;20.66;80.93;101533.88;5012516;28;20056;-65
2023/07/13 06:09:11;;;;;;;0.05;0.05;;;;;;;20.80;80.49;101520.47;5039316;28;20122;-66
2023/07/13 06:11:36;;;;;;;0.00;0.00;;;;;;;20.62;81.59;101529.22;5044886;28;20063;-64
2023/07/13 06:14:03;;;;;;;0.10;0.10;;;;;;;20.90;80.38;101525.91;5048331;28;20067;-65
2023/07/13 06:16:29;;;;;;;0.00;0.00;;;;;;;20.64;81.51;101530.59;5046560;28;20118;-63
2023/07/13 06:18:54;;;;;;;0.08;0.08;;;;;;;20.51;83.03;101530.34;5043322;28;20509;-64
2023/07/13 06:21:22;;;;;;;0.10;0.10;;;;;;;20.94;80.73;101527.00;5020252;28;20489;-65
2023/07/13 06:23:50;;;;;;;0.00;0.00;;;;;;;21.20;79.08;101535.97;5009896;28;20054;-63
2023/07/13 06:26:16;;;;;;;0.00;0.00;;;;;;;21.69;77.31;101540.41;5009618;28;20034;-65
2023/07/13 06:28:42;;;;;;;0.10;0.10;;;;;;;21.56;77.77;101532.78;4991689;28;20129;-64
2023/07/13 06:31:10;;;;;;;0.10;0.10;;;;;;;21.82;77.15;101542.53;5016635;28;20030;-66
2023/07/13 06:33:37;;;;;;;0.00;0.00;;;;;;;21.87;76.54;101547.19;5011410;28;20032;-65
2023/07/13 06:36:03;;;;;;;0.10;0.10;;;;;;;21.45;77.12;101550.38;5010183;28;20431;-62
2023/07/13 06:38:29;;;;;;;0.10;0.10;;;;;;;21.61;77.81;101548.38;5003003;28;20080;-63
2023/07/13 06:40:54;;;;;;;0.00;0.00;;;;;;;21.78;76.99;101548.81;5007062;28;20066;-64
2023/07/13 06:43:20;;;;;;;0.00;0.00;;;;;;;21.79;76.62;101545.81;5023838;28;20037;-66
2023/07/13 06:45:48;;;;;;;0.00;0.00;;;;;;;21.75;76.26;101546.66;5006673;28;20039;-65
2023/07/13 06:48:15;;;;;;;0.00;0.00;;;;;;;22.15;74.95;101551.09;5004779;28;20425;-66
2023/07/13 06:50:42;;;;;;;0.00;0.00;;;;;;;21.76;77.33;101549.09;5009293;28;20425;-64
2023/07/13 06:53:08;;;;;;;0.00;0.00;;;;;;;22.14;74.97;101552.19;5013834;28;20038;-64
2023/07/13 06:55:34;;;;;;;0.00;0.00;;;;;;;22.02;75.80;101554.47;5015280;28;20090;-65
2023/07/13 06:57:59;;;;;;;0.00;0.00;;;;;;;21.89;75.99;101547.72;5020830;28;20042;-65
2023/07/13 07:00:25;;;;;;;0.00;0.00;;;;;;;22.34;75.42;101554.78;4985461;28;20374;-65
2023/07/13 07:02:50;;;;;;;0.00;0.00;;;;;;;22.76;73.89;101552.22;5006009;28;20022;-68
2023/07/13 07:05:15;;;;;;;0.00;0.00;;;;;;;22.34;74.92;101557.53;5002769;28;20061;-65
2023/07/13 07:07:41;;;;;;;0.00;0.00;;;;;;;22.37;74.36;101562.41;5010504;28;20479;-64
2023/07/13 07:10:07;;;;;;;0.00;0.00;;;;;;;22.24;74.47;101554.84;5011603;28;20030;-65
2023/07/13 07:12:32;;;;;;;0.00;0.00;;;;;;;22.34;73.27;101563.00;5011610;28;20025;-66
2023/07/13 07:14:58;;;;;;;0.03;0.03;;;;;;;22.79;72.07;101565.38;5011999;28;20034;-65
2023/07/13 07:17:23;;;;;;;0.05;0.05;;;;;;;23.38;69.29;101560.38;5010590;28;20493;-66
2023/07/13 07:19:48;;;;;;;0.00;0.00;;;;;;;23.20;69.54;101563.03;5008189;28;20041;-65
2023/07/13 07:22:14;;;;;;;0.00;0.00;;;;;;;22.62;71.69;101560.31;4999179;28;20026;-64
2023/07/13 07:24:39;;;;;;;0.03;0.03;;;;;;;22.77;70.89;101569.50;5030633;28;20034;-64
2023/07/13 07:27:05;;;;;;;0.00;0.00;;;;;;;22.74;70.65;101561.88;5023009;28;20067;-64
2023/07/13 07:29:30;;;;;;;0.00;0.00;;;;;;;22.99;69.67;101561.63;5031037;28;20382;-66
2023/07/13 07:31:55;;;;;;;0.00;0.00;;;;;;;22.84;70.92;101568.06;5027949;28;20060;-64
2023/07/13 07:34:21;;;;;;;0.00;0.00;;;;;;;23.16;68.87;101562.78;5028740;28;20056;-64
2023/07/13 07:36:46;;;;;;;0.00;0.00;;;;;;;23.11;68.33;101567.53;5036184;28;20060;-64
2023/07/13 07:39:12;;;;;;;0.00;0.00;;;;;;;24.05;64.95;101550.16;5038228;28;20055;-64
2023/07/13 07:41:37;;;;;;;0.00;0.00;;;;;;;23.53;65.49;101551.13;5036050;28;20555;-64
2023/07/13 07:44:03;;;;;;;0.00;0.00;;;;;;;23.89;64.76;101552.28;5034525;28;20037;-66
2023/07/13 07:46:29;;;;;;;0.00;0.00;;;;;;;23.83;64.56;101553.47;5036455;28;20080;-63
2023/07/13 07:48:56;;;;;;;0.00;0.00;;;;;;;24.03;63.80;101549.66;5029929;28;20065;-65
2023/07/13 07:51:21;;;;;;;0.05;0.05;;;;;;;23.92;63.01;101554.44;5010530;28;20025;-64
2023/07/13 07:53:47;;;;;;;0.00;0.00;;;;;;;24.03;63.16;101564.19;5011237;28;20034;-65
2023/07/13 07:56:12;;;;;;;0.00;0.00;;;;;;;23.65;61.59;101558.94;5009995;28;20038;-66
2023/07/13 07:58:38;;;;;;;0.00;0.00;;;;;;;23.14;64.09;101553.22;5007066;28;20038;-65
2023/07/13 08:01:05;;;;;;;0.00;0.00;;;;;;;23.46;62.61;101550.69;5018023;28;20038;-65
2023/07/13 08:03:30;;;;;;;0.00;0.00;;;;;;;24.01;62.12;101549.09;5019756;28;20465;-65
2023/07/13 08:05:55;;;;;;;0.00;0.00;;;;;;;23.50;63.05;101563.53;5021153;28;20277;-67
2023/07/13 08:08:21;;;;;;;0.00;0.00;;;;;;;23.00;64.21;101568.72;5018695;28;20042;-64
2023/07/13 08:10:46;;;;;;;0.00;0.00;;;;;;;23.13;63.46;101563.41;5013535;28;20041;-66
2023/07/13 08:13:11;;;;;;;0.00;0.00;;;;;;;23.91;61.18;101552.81;5011051;28;20274;-67
2023/07/13 08:15:37;;;;;;;0.00;0.00;;;;;;;24.48;59.46;101553.59;5009669;28;20042;-64
2023/07/13 08:18:03;;;;;;;0.00;0.00;;;;;;;23.98;60.94;101556.00;5019443;28;20408;-66
2023/07/13 08:20:28;;;;;;;0.00;0.00;;;;;;;24.13;62.26;101553.06;5016067;28;20026;-64
2023/07/13 08:22:53;;;;;;;0.00;0.00;;;;;;;24.40;59.91;101561.41;5023376;28;20046;-64
2023/07/13 08:25:20;;;;;;;0.00;0.00;;;;;;;23.43;62.22;101564.97;5011866;28;20032;-65
2023/07/13 08:27:45;;;;;;;0.00;0.00;;;;;;;22.78;65.59;101562.94;5021934;28;20077;-63
2023/07/13 08:30:11;;;;;;;0.00;0.00;;;;;;;22.59;67.54;101560.06;5024456;28;20041;-65
2023/07/13 08:32:38;;;;;;;0.00;0.00;;;;;;;22.28;71.73;101584.13;5026215;28;20034;-64
2023/07/13 08:35:04;;;;;;;0.00;0.00;;;;;;;21.40;78.59;101583.22;5014555;28;20216;-65
2023/07/13 08:37:30;;;;;;;0.00;0.00;;;;;;;20.34;82.50;101579.78;5024775;28;20117;-66
2023/07/13 08:39:55;;;;;;;0.10;0.10;;;;;;;20.69;82.90;101585.25;5025752;28;20396;-67
2023/07/13 08:42:53;;;;;;;0.10;0.10;;;;;;;20.94;85.53;101584.38;5029509;28;20022;-65
2023/07/13 08:45:42;;;;;;;0.10;0.10;;;;;;;21.55;84.38;101574.13;5010017;28;20394;-64
2023/07/13 08:48:16;;;;;;;0.10;0.10;;;;;;;21.17;83.90;101569.34;5013619;28;20057;-65
2023/07/13 08:51:23;;;;;;;0.00;0.00;;;;;;;21.29;82.43;101591.69;5031467;28;20081;-64
2023/07/13 08:53:54;;;;;;;0.10;0.10;;;;;;;20.45;83.31;101589.59;4971526;28;20487;-62
2023/07/13 08:56:25;;;;;;;0.08;0.08;;;;;;;21.24;79.90;101587.09;4972487;28;20046;-65
2023/07/13 08:58:57;;;;;;;0.13;0.13;;;;;;;21.90;78.95;101584.91;4973159;28;20045;-64
2023/07/13 09:01:47;;;;;;;0.10;0.10;;;;;;;22.66;79.09;101590.72;4972981;28;20046;-65
2023/07/13 09:04:27;;;;;;;0.10;0.10;;;;;;;21.98;77.86;101600.75;4969646;28;20045;-63
2023/07/13 09:07:11;;;;;;;0.00;0.00;;;;;;;22.50;77.91;101600.97;4970719;28;20088;-64
2023/07/13 09:09:58;;;;;;;0.00;0.00;;;;;;;22.51;77.25;101604.50;4980551;28;20553;-65
2023/07/13 09:13:00;;;;;;;0.10;0.10;;;;;;;22.51;74.51;101610.78;4988071;28;20399;-65
2023/07/13 09:15:30;;;;;;;0.10;0.10;;;;;;;22.66;73.06;101601.69;4976109;28;20030;-63
2023/07/13 09:18:02;;;;;;;0.00;0.00;;;;;;;22.94;71.03;101617.31;4976834;28;20097;-68
2023/07/13 09:20:41;;;;;;;0.05;0.05;;;;;;;23.37;72.21;101605.38;4978613;28;20031;-65
2023/07/13 09:23:14;;;;;;;0.00;0.00;;;;;;;23.09;71.77;101608.13;4976341;28;20037;-64
2023/07/13 09:25:43;;;;;;;0.00;0.00;;;;;;;22.73;71.76;101610.38;4974357;28;20042;-64
2023/07/13 09:28:15;;;;;;;0.00;0.00;;;;;;;22.92;71.52;101608.56;4978243;28;20104;-65
2023/07/13 09:31:00;;;;;;;0.10;0.10;;;;;;;23.11;71.19;101614.97;5016414;28;20504;-65
2023/07/13 09:33:29;;;;;;;0.00;0.00;;;;;;;22.65;70.65;101605.50;5035767;28;20112;-64
2023/07/13 09:35:55;;;;;;;0.10;0.10;;;;;;;22.79;70.01;101605.66;5040592;28;20029;-64
2023/07/13 09:38:25;;;;;;;0.10;0.10;;;;;;;23.81;68.17;101601.53;5049248;28;20033;-63
2023/07/13 09:41:14;;;;;;;0.00;0.00;;;;;;;24.25;65.29;101602.06;5049623;28;20854;-64
2023/07/13 09:44:01;;;;;;;0.00;0.00;;;;;;;23.46;67.04;101608.28;5038688;28;20040;-67
2023/07/13 09:46:26;;;;;;;0.00;0.00;;;;;;;23.70;68.13;101586.31;5032868;28;20041;-65
2023/07/13 09:48:52;;;;;;;0.00;0.00;;;;;;;24.44;64.25;101600.09;5044444;28;20107;-65
2023/07/13 09:51:18;;;;;;;0.00;0.00;;;;;;;23.95;63.76;101596.97;5046261;28;20060;-65
2023/07/13 09:53:44;;;;;;;0.00;0.00;;;;;;;23.65;63.76;101597.34;5030146;28;20499;-64
2023/07/13 09:56:24;;;;;;;0.00;0.00;;;;;;;24.52;61.65;101604.91;5029527;28;20044;-64
2023/07/13 09:58:49;;;;;;;0.00;0.00;;;;;;;23.93;62.25;101600.00;5029175;28;20124;-64
2023/07/13 10:01:15;;;;;;;0.00;0.00;;;;;;;23.26;64.04;101614.78;5028712;28;20141;-63
2023/07/13 10:03:53;;;;;;;0.00;0.00;;;;;;;23.48;64.60;101614.31;5029149;28;20052;-70
2023/07/13 10:06:21;;;;;;;0.00;0.00;;;;;;;22.70;67.33;101643.84;5029120;28;20022;-61
2023/07/13 10:08:49;;;;;;;0.00;0.00;;;;;;;22.16;71.06;101675.94;5029431;28;20108;-64
2023/07/13 10:11:20;;;;;;;0.00;0.00;;;;;;;17.84;100.00;101691.25;5034589;28;20052;-66
2023/07/13 10:13:52;;;;;;;0.10;0.10;;;;;;;18.55;100.00;101698.38;5030869;28;20156;-68
2023/07/13 10:16:18;;;;;;;0.05;0.05;;;;;;;19.49;92.89;101681.19;5032772;28;20037;-65
2023/07/13 10:18:50;;;;;;;0.10;0.10;;;;;;;20.56;88.00;101677.81;5032988;28;20045;-65
2023/07/13 10:21:21;;;;;;;0.10;0.10;;;;;;;20.87;89.01;101671.28;5039615;28;20655;-66
2023/07/13 10:23:58;;;;;;;0.10;0.10;;;;;;;21.04;87.43;101668.28;5028919;28;20017;-66
2023/07/13 10:26:31;;;;;;;0.10;0.10;;;;;;;21.08;90.43;101666.66;5034164;28;20033;-68
2023/07/13 10:29:01;;;;;;;0.10;0.10;;;;;;;21.68;88.91;101669.25;5015891;28;20061;-65
2023/07/13 10:31:27;;;;;;;0.10;0.10;;;;;;;22.22;86.79;101674.81;5033027;28;20489;-64
2023/07/13 10:33:52;;;;;;;0.10;0.10;;;;;;;22.08;87.48;101682.81;5033104;28;20033;-65
2023/07/13 10:36:33;;;;;;;0.10;0.10;;;;;;;21.90;86.65;101680.69;5032677;28;20536;-64
2023/07/13 10:39:03;;;;;;;0.10;0.10;;;;;;;21.58;88.45;101685.72;5033390;28;20028;-64
2023/07/13 10:41:33;;;;;;;0.10;0.10;;;;;;;21.22;89.79;101682.22;5032639;28;20047;-67
2023/07/13 10:43:59;;;;;;;0.00;0.00;;;;;;;20.77;91.35;101685.78;5032400;28;20042;-65
2023/07/13 10:46:28;;;;;;;0.10;0.10;;;;;;;21.02;88.59;101684.97;5032724;28;20045;-66
2023/07/13 10:49:04;;;;;;;0.10;0.10;;;;;;;21.18;87.67;101683.03;5032178;28;20068;-65
2023/07/13 10:51:31;;;;;;;0.10;0.10;;;;;;;21.16;87.92;101677.03;5032648;28;20136;-67
2023/07/13 10:54:18;;;;;;;0.10;0.10;;;;;;;21.26;88.29;101680.59;5033098;28;20504;-64
2023/07/13 10:56:44;;;;;;;0.10;0.10;;;;;;;21.16;87.91;101685.22;5032863;28;20045;-64
2023/07/13 10:59:11;;;;;;;0.03;0.03;;;;;;;21.28;87.62;101681.13;5032350;28;20505;-64
2023/07/13 11:02:04;;;;;;;0.10;0.10;;;;;;;22.01;85.39;101665.91;5032537;28;20029;-63
2023/07/13 11:04:47;;;;;;;0.00;0.00;;;;;;;21.13;89.17;101681.13;4971112;28;20038;-64
2023/07/13 11:07:28;;;;;;;0.10;0.10;;;;;;;21.76;86.75;101688.66;4971430;28;20054;-65
2023/07/13 11:09:57;;;;;;;0.10;0.10;;;;;;;21.61;87.33;101699.66;4971039;28;20078;-63
2023/07/13 11:12:22;;;;;;;0.10;0.10;;;;;;;21.52;86.75;101695.84;4971263;28;20026;-63
2023/07/13 11:14:53;;;;;;;0.10;0.10;;;;;;;21.69;87.50;101704.56;4955165;28;20446;-65
2023/07/13 11:17:28;;;;;;;0.10;0.10;;;;;;;20.70;89.17;101704.31;4970875;28;20031;-64
2023/07/13 11:19:54;;;;;;;0.10;0.10;;;;;;;20.30;88.50;101706.16;4970876;28;20062;-66
2023/07/13 11:22:25;;;;;;;0.10;0.10;;;;;;;20.38;87.90;101698.28;4987464;28;20152;-65
2023/07/13 11:24:58;;;;;;;0.10;0.10;;;;;;;20.06;87.96;101692.13;4990551;28;20042;-65
2023/07/13 11:27:28;;;;;;;0.10;0.10;;;;;;;20.63;85.95;101692.03;4989067;28;20418;-64